Time;durP1;ratioP1;P1;durP2;ratioP2;P2;SDS_P1;SDS_P2;PMS_P1;PMS_P2;Temp;Humidity;BMP_temperature;BMP_pressure;BME280_temperature;BME280_humidity;BME280_pressure;Samples;Min_cycle;Max_cycle;Signal;HPM_P1;HPM_P2
2022/01/05 00:00:15;;;;;;;11.98;2.05;;;;;;;;;;5096068;28;20047;-81
2022/01/05 00:02:42;;;;;;;10.60;1.70;;;;;;;;;;5096158;28;20054;-81
2022/01/05 00:05:08;;;;;;;14.82;2.13;;;;;;;;;;5113848;28;20052;-80
2022/01/05 00:07:34;;;;;;;11.57;1.65;;;;;;;;;;5095697;28;20047;-84
2022/01/05 00:10:00;;;;;;;9.65;2.00;;;;;;;;;;5078775;28;20051;-81
2022/01/05 00:12:27;;;;;;;13.38;2.22;;;;;;;;;;5095691;28;20096;-81
2022/01/05 00:14:53;;;;;;;15.05;2.33;;;;;;;;;;5113815;28;20082;-80
2022/01/05 00:17:19;;;;;;;11.98;1.80;;;;;;;;;;5113810;28;20492;-79
2022/01/05 00:19:45;;;;;;;14.50;2.00;;;;;;;;;;5113913;28;20082;-81
2022/01/05 00:22:11;;;;;;;13.80;2.22;;;;;;;;;;5095857;28;20122;-80
2022/01/05 00:24:38;;;;;;;13.77;2.28;;;;;;;;;;5113754;28;20055;-80
2022/01/05 00:27:04;;;;;;;10.90;2.10;;;;;;;;;;5095368;28;20055;-80
2022/01/05 00:29:31;;;;;;;16.60;2.78;;;;;;;;;;5113881;28;20059;-82
2022/01/05 00:31:57;;;;;;;15.02;2.67;;;;;;;;;;5113488;28;20492;-81
2022/01/05 00:34:23;;;;;;;13.63;2.35;;;;;;;;;;5113590;28;20507;-81
2022/01/05 00:36:49;;;;;;;14.95;2.58;;;;;;;;;;5113401;28;20179;-80
2022/01/05 00:39:16;;;;;;;12.13;2.35;;;;;;;;;;5113346;28;20084;-80
2022/01/05 00:41:42;;;;;;;16.20;2.92;;;;;;;;;;5095302;28;20046;-80
2022/01/05 00:44:08;;;;;;;13.25;2.03;;;;;;;;;;5113327;28;20568;-80
2022/01/05 00:46:34;;;;;;;16.50;2.50;;;;;;;;;;5112798;28;20047;-80
2022/01/05 00:49:00;;;;;;;14.20;2.10;;;;;;;;;;5094866;28;20388;-80
2022/01/05 00:51:26;;;;;;;16.02;2.33;;;;;;;;;;5095363;28;20532;-80
2022/01/05 00:53:52;;;;;;;13.77;2.17;;;;;;;;;;5113164;28;20058;-80
2022/01/05 00:56:18;;;;;;;12.73;2.10;;;;;;;;;;5113164;28;20048;-79
2022/01/05 00:58:54;;;;;;;13.75;2.05;;;;;;;;;;5113049;28;20188;-81
2022/01/05 01:01:20;;;;;;;12.90;1.92;;;;;;;;;;5113150;28;20050;-79
2022/01/05 01:03:46;;;;;;;17.95;2.40;;;;;;;;;;5113134;28;20043;-81
2022/01/05 01:06:12;;;;;;;11.02;1.73;;;;;;;;;;5091436;28;20055;-80
2022/01/05 01:08:38;;;;;;;16.10;2.20;;;;;;;;;;5091271;28;20560;-80
2022/01/05 01:11:05;;;;;;;11.95;1.90;;;;;;;;;;5092826;28;20044;-80
2022/01/05 01:13:31;;;;;;;11.60;1.70;;;;;;;;;;5092796;28;20040;-80
2022/01/05 01:15:57;;;;;;;11.85;2.30;;;;;;;;;;5092647;28;20089;-80
2022/01/05 01:18:23;;;;;;;15.02;1.88;;;;;;;;;;5092650;28;20040;-81
2022/01/05 01:20:50;;;;;;;14.55;2.10;;;;;;;;;;5092432;28;20127;-80
2022/01/05 01:23:22;;;;;;;9.65;1.63;;;;;;;;;;5092340;28;20040;-80
2022/01/05 01:25:52;;;;;;;7.72;1.55;;;;;;;;;;5091639;28;20542;-81
2022/01/05 01:28:19;;;;;;;13.40;1.98;;;;;;;;;;5091688;28;20381;-79
2022/01/05 01:30:45;;;;;;;11.35;1.50;;;;;;;;;;5092632;28;20048;-81
2022/01/05 01:33:11;;;;;;;13.02;1.90;;;;;;;;;;5092305;28;20539;-80
2022/01/05 01:35:37;;;;;;;10.38;1.83;;;;;;;;;;5092421;28;20048;-81
2022/01/05 01:38:03;;;;;;;10.60;2.03;;;;;;;;;;5092289;28;20507;-80
2022/01/05 01:40:30;;;;;;;15.63;2.30;;;;;;;;;;5092496;28;20135;-80
2022/01/05 01:42:56;;;;;;;13.88;1.90;;;;;;;;;;5091384;28;20072;-81
2022/01/05 01:45:22;;;;;;;14.30;1.80;;;;;;;;;;5091323;28;20097;-81
2022/01/05 01:47:51;;;;;;;12.40;2.03;;;;;;;;;;5092316;28;20126;-80
2022/01/05 01:50:17;;;;;;;14.57;1.88;;;;;;;;;;5091029;28;20389;-81
2022/01/05 01:52:43;;;;;;;11.52;1.85;;;;;;;;;;5092539;28;20048;-80
2022/01/05 01:55:11;;;;;;;12.77;1.90;;;;;;;;;;5092293;28;20096;-81
2022/01/05 01:57:39;;;;;;;10.73;1.55;;;;;;;;;;5092588;28;20386;-82
2022/01/05 02:00:06;;;;;;;15.65;2.10;;;;;;;;;;5094852;28;20040;-81
2022/01/05 02:02:32;;;;;;;12.30;2.22;;;;;;;;;;5096136;28;20119;-79
2022/01/05 02:04:58;;;;;;;13.63;1.85;;;;;;;;;;5094504;28;20040;-81
2022/01/05 02:07:24;;;;;;;14.43;1.92;;;;;;;;;;5095878;28;20036;-81
2022/01/05 02:09:51;;;;;;;15.70;2.58;;;;;;;;;;5096092;28;20044;-80
2022/01/05 02:12:17;;;;;;;14.95;2.47;;;;;;;;;;5095928;28;20090;-81
2022/01/05 02:14:43;;;;;;;11.02;2.00;;;;;;;;;;5094750;28;20047;-80
2022/01/05 02:17:22;;;;;;;14.95;1.90;;;;;;;;;;5095691;28;20084;-80
2022/01/05 02:19:49;;;;;;;14.15;1.90;;;;;;;;;;5095886;28;20040;-80
2022/01/05 02:22:15;;;;;;;12.52;1.90;;;;;;;;;;5094736;28;20051;-80
2022/01/05 02:24:46;;;;;;;12.02;2.20;;;;;;;;;;5094866;28;20469;-81
2022/01/05 02:27:13;;;;;;;10.65;2.10;;;;;;;;;;5094525;28;20085;-80
2022/01/05 02:29:39;;;;;;;13.75;2.20;;;;;;;;;;5095525;28;20180;-80
2022/01/05 02:32:05;;;;;;;16.38;2.13;;;;;;;;;;5094454;28;20096;-80
2022/01/05 02:34:31;;;;;;;12.45;2.20;;;;;;;;;;5095596;28;20044;-80
2022/01/05 02:36:57;;;;;;;14.15;2.17;;;;;;;;;;5095719;28;20055;-81
2022/01/05 02:39:23;;;;;;;12.50;2.20;;;;;;;;;;5095484;28;20123;-79
2022/01/05 02:41:50;;;;;;;11.50;1.95;;;;;;;;;;5093987;28;20108;-80
2022/01/05 02:44:17;;;;;;;11.70;1.95;;;;;;;;;;5094095;28;20054;-80
2022/01/05 02:46:43;;;;;;;11.50;2.78;;;;;;;;;;5095131;28;20294;-80
2022/01/05 02:49:09;;;;;;;11.85;2.40;;;;;;;;;;5094002;28;20135;-80
2022/01/05 02:51:35;;;;;;;19.80;2.53;;;;;;;;;;5095037;28;20458;-80
2022/01/05 02:54:02;;;;;;;13.57;2.35;;;;;;;;;;5094013;28;20575;-80
2022/01/05 02:56:28;;;;;;;11.95;2.15;;;;;;;;;;5095037;28;20164;-80
2022/01/05 02:58:54;;;;;;;12.80;2.47;;;;;;;;;;5094878;28;20036;-79
2022/01/05 03:01:20;;;;;;;15.80;2.47;;;;;;;;;;5093708;28;20055;-80
2022/01/05 03:03:46;;;;;;;14.90;2.30;;;;;;;;;;5093965;28;20044;-79
2022/01/05 03:06:12;;;;;;;17.90;2.47;;;;;;;;;;5112049;28;20051;-80
2022/01/05 03:08:38;;;;;;;13.60;2.25;;;;;;;;;;5115348;28;20040;-79
2022/01/05 03:11:05;;;;;;;16.92;2.60;;;;;;;;;;5114437;28;20392;-80
2022/01/05 03:13:31;;;;;;;12.30;2.35;;;;;;;;;;5114981;28;20410;-79
2022/01/05 03:15:57;;;;;;;14.65;2.60;;;;;;;;;;5114877;28;20130;-80
2022/01/05 03:18:23;;;;;;;15.90;2.10;;;;;;;;;;5097040;28;20054;-80
2022/01/05 03:20:49;;;;;;;15.23;2.30;;;;;;;;;;5114831;28;20044;-79
2022/01/05 03:23:16;;;;;;;17.33;2.28;;;;;;;;;;5114787;28;20493;-80
2022/01/05 03:25:43;;;;;;;17.27;2.78;;;;;;;;;;5114886;28;20059;-80
2022/01/05 03:28:09;;;;;;;19.52;2.90;;;;;;;;;;5114688;28;20043;-80
2022/01/05 03:30:36;;;;;;;14.15;1.90;;;;;;;;;;5115075;28;20040;-78
2022/01/05 03:33:10;;;;;;;13.63;2.25;;;;;;;;;;5114623;28;20043;-80
2022/01/05 03:35:40;;;;;;;12.88;1.70;;;;;;;;;;5114696;28;20048;-80
2022/01/05 03:38:07;;;;;;;13.52;2.47;;;;;;;;;;5114725;28;20082;-80
2022/01/05 03:40:34;;;;;;;21.00;2.95;;;;;;;;;;5096230;28;20039;-80
2022/01/05 03:43:01;;;;;;;14.73;2.13;;;;;;;;;;5114459;28;20184;-81
2022/01/05 03:45:27;;;;;;;14.45;2.50;;;;;;;;;;5096379;28;20048;-80
2022/01/05 03:47:53;;;;;;;21.42;2.53;;;;;;;;;;5096401;28;20040;-81
2022/01/05 03:50:19;;;;;;;13.82;2.45;;;;;;;;;;5114297;28;20055;-79
2022/01/05 03:52:45;;;;;;;21.40;2.85;;;;;;;;;;5114380;28;20130;-80
2022/01/05 03:55:12;;;;;;;17.63;2.45;;;;;;;;;;5095904;28;20552;-79
2022/01/05 03:57:38;;;;;;;17.65;2.50;;;;;;;;;;5114388;28;20043;-79
2022/01/05 04:00:05;;;;;;;15.07;2.70;;;;;;;;;;5114347;28;20089;-80
2022/01/05 04:02:31;;;;;;;20.70;2.90;;;;;;;;;;5096155;28;20068;-81
2022/01/05 04:05:06;;;;;;;14.35;2.22;;;;;;;;;;5113810;28;20512;-81
2022/01/05 04:07:32;;;;;;;13.77;2.28;;;;;;;;;;5113932;28;20089;-80
2022/01/05 04:09:58;;;;;;;13.38;2.03;;;;;;;;;;5114391;28;20047;-80
2022/01/05 04:12:24;;;;;;;22.13;3.10;;;;;;;;;;5113943;28;20055;-81
2022/01/05 04:14:51;;;;;;;12.90;2.60;;;;;;;;;;5096000;28;20515;-82
2022/01/05 04:17:17;;;;;;;19.40;3.05;;;;;;;;;;5095604;28;20116;-79
2022/01/05 04:19:43;;;;;;;14.80;2.38;;;;;;;;;;5113833;28;20057;-80
2022/01/05 04:22:09;;;;;;;16.63;2.42;;;;;;;;;;5113034;28;20044;-80
2022/01/05 04:24:35;;;;;;;19.35;2.53;;;;;;;;;;5114057;28;20051;-81
2022/01/05 04:27:01;;;;;;;15.52;2.63;;;;;;;;;;5113844;28;20044;-81
2022/01/05 04:29:28;;;;;;;20.35;3.85;;;;;;;;;;5095624;28;20077;-80
2022/01/05 04:31:54;;;;;;;20.20;3.42;;;;;;;;;;5113817;28;20126;-80
2022/01/05 04:34:20;;;;;;;17.80;2.90;;;;;;;;;;5113545;28;20199;-80
2022/01/05 04:36:46;;;;;;;23.95;3.97;;;;;;;;;;5113458;28;20047;-80
2022/01/05 04:39:12;;;;;;;18.70;3.20;;;;;;;;;;5113447;28;20036;-81
2022/01/05 04:41:38;;;;;;;14.85;2.53;;;;;;;;;;5113562;28;20039;-80
2022/01/05 04:44:05;;;;;;;18.92;2.95;;;;;;;;;;5113252;28;20089;-80
2022/01/05 04:46:31;;;;;;;15.25;2.10;;;;;;;;;;5113328;28;20422;-81
2022/01/05 04:48:57;;;;;;;17.38;2.85;;;;;;;;;;5113522;28;20047;-81
2022/01/05 04:51:23;;;;;;;16.13;2.80;;;;;;;;;;5113095;28;20089;-80
2022/01/05 04:53:51;;;;;;;21.13;2.92;;;;;;;;;;5113140;28;20123;-80
2022/01/05 04:56:17;;;;;;;12.90;2.30;;;;;;;;;;5095243;28;20039;-81
2022/01/05 04:58:43;;;;;;;13.80;2.45;;;;;;;;;;5113361;28;20040;-80
2022/01/05 05:01:09;;;;;;;19.35;2.58;;;;;;;;;;5112925;28;20144;-80
2022/01/05 05:03:35;;;;;;;13.50;2.42;;;;;;;;;;5113235;28;20126;-80
2022/01/05 05:06:02;;;;;;;17.67;2.33;;;;;;;;;;5112451;28;20051;-81
2022/01/05 05:08:28;;;;;;;18.92;3.03;;;;;;;;;;5094979;28;20051;-80
2022/01/05 05:10:54;;;;;;;15.32;2.72;;;;;;;;;;5113135;28;20051;-82
2022/01/05 05:13:20;;;;;;;16.02;2.47;;;;;;;;;;5113250;28;20074;-81
2022/01/05 05:15:46;;;;;;;12.40;2.10;;;;;;;;;;5094914;28;20047;-81
2022/01/05 05:18:12;;;;;;;16.50;2.50;;;;;;;;;;5112952;28;20044;-80
2022/01/05 05:20:40;;;;;;;17.58;2.65;;;;;;;;;;5094766;28;20110;-80
2022/01/05 05:23:06;;;;;;;15.60;2.38;;;;;;;;;;5112919;28;20039;-80
2022/01/05 05:25:33;;;;;;;15.60;3.00;;;;;;;;;;5113169;28;20051;-81
2022/01/05 05:27:59;;;;;;;17.48;2.58;;;;;;;;;;5094906;28;20032;-80
2022/01/05 05:30:25;;;;;;;18.25;3.28;;;;;;;;;;5094717;28;20044;-80
2022/01/05 05:32:55;;;;;;;15.55;2.33;;;;;;;;;;5095315;28;20419;-80
2022/01/05 05:35:21;;;;;;;16.40;2.78;;;;;;;;;;5098660;28;20419;-80
2022/01/05 05:37:48;;;;;;;17.00;2.33;;;;;;;;;;5117236;28;20046;-80
2022/01/05 05:40:14;;;;;;;17.23;2.20;;;;;;;;;;5116733;28;20536;-80
2022/01/05 05:42:40;;;;;;;21.17;2.92;;;;;;;;;;5117003;28;20056;-80
2022/01/05 05:45:06;;;;;;;15.48;2.17;;;;;;;;;;5116875;28;20118;-81
2022/01/05 05:47:33;;;;;;;20.20;2.63;;;;;;;;;;5098579;28;20385;-79
2022/01/05 05:50:00;;;;;;;16.63;2.85;;;;;;;;;;5116595;28;20043;-80
2022/01/05 05:52:26;;;;;;;12.68;1.98;;;;;;;;;;5116833;28;20044;-81
2022/01/05 05:54:52;;;;;;;16.70;2.90;;;;;;;;;;5116518;28;20126;-81
2022/01/05 05:57:19;;;;;;;15.85;2.30;;;;;;;;;;5116481;28;20043;-80
2022/01/05 05:59:45;;;;;;;15.82;3.13;;;;;;;;;;5116711;28;20053;-81
2022/01/05 06:02:11;;;;;;;18.20;3.15;;;;;;;;;;5116522;28;20040;-80
2022/01/05 06:04:37;;;;;;;17.38;2.20;;;;;;;;;;5116435;28;20093;-80
2022/01/05 06:07:04;;;;;;;20.13;3.28;;;;;;;;;;5098123;28;20047;-81
2022/01/05 06:09:30;;;;;;;17.27;2.70;;;;;;;;;;5098254;28;20046;-80
2022/01/05 06:11:56;;;;;;;20.92;2.85;;;;;;;;;;5116209;28;20044;-81
2022/01/05 06:14:22;;;;;;;16.90;2.72;;;;;;;;;;5116229;28;20524;-81
2022/01/05 06:16:48;;;;;;;18.05;2.60;;;;;;;;;;5116151;28;20106;-80
2022/01/05 06:19:14;;;;;;;13.93;2.42;;;;;;;;;;5115981;28;20072;-81
2022/01/05 06:21:40;;;;;;;15.80;2.72;;;;;;;;;;5098087;28;20118;-81
2022/01/05 06:24:07;;;;;;;16.55;2.83;;;;;;;;;;5116183;28;20362;-79
2022/01/05 06:26:33;;;;;;;16.85;3.00;;;;;;;;;;5116004;28;20050;-79
2022/01/05 06:28:59;;;;;;;20.38;2.88;;;;;;;;;;5115906;28;20389;-80
2022/01/05 06:31:25;;;;;;;18.10;2.83;;;;;;;;;;5115878;28;20487;-79
2022/01/05 06:33:51;;;;;;;19.05;2.17;;;;;;;;;;5115844;28;20084;-80
2022/01/05 06:36:17;;;;;;;14.98;2.33;;;;;;;;;;5116132;28;20054;-79
2022/01/05 06:38:43;;;;;;;15.05;2.15;;;;;;;;;;5116014;28;20443;-80
2022/01/05 06:41:09;;;;;;;17.52;2.15;;;;;;;;;;5115564;28;20131;-80
2022/01/05 06:43:35;;;;;;;16.65;2.40;;;;;;;;;;5115791;28;20079;-80
2022/01/05 06:46:02;;;;;;;16.60;2.33;;;;;;;;;;5096283;28;20043;-80
2022/01/05 06:48:28;;;;;;;18.75;2.58;;;;;;;;;;5115527;28;20043;-81
2022/01/05 06:50:54;;;;;;;14.02;2.00;;;;;;;;;;5115584;28;20511;-81
2022/01/05 06:53:20;;;;;;;15.85;2.40;;;;;;;;;;5097723;28;20051;-82
2022/01/05 06:55:46;;;;;;;14.50;2.13;;;;;;;;;;5115394;28;20046;-82
2022/01/05 06:58:12;;;;;;;14.07;2.22;;;;;;;;;;5115399;28;20065;-81
2022/01/05 07:00:38;;;;;;;15.85;2.40;;;;;;;;;;5115317;28;20044;-81
2022/01/05 07:03:05;;;;;;;18.77;2.70;;;;;;;;;;5097641;28;20051;-81
2022/01/05 07:05:31;;;;;;;16.92;2.47;;;;;;;;;;5115217;28;20135;-82
2022/01/05 07:07:57;;;;;;;15.32;2.35;;;;;;;;;;5097398;28;20093;-82
2022/01/05 07:10:23;;;;;;;16.08;3.75;;;;;;;;;;5115378;28;20076;-83
2022/01/05 07:12:49;;;;;;;15.73;3.90;;;;;;;;;;5115069;28;20096;-82
2022/01/05 07:15:16;;;;;;;17.55;3.58;;;;;;;;;;5115244;28;20043;-81
2022/01/05 07:17:43;;;;;;;16.38;2.35;;;;;;;;;;5115221;28;20046;-81
2022/01/05 07:20:09;;;;;;;15.95;2.30;;;;;;;;;;5080257;28;20086;-82
2022/01/05 07:22:36;;;;;;;14.93;2.50;;;;;;;;;;5114968;28;20050;-82
2022/01/05 07:25:02;;;;;;;12.55;1.90;;;;;;;;;;5115201;28;20067;-82
2022/01/05 07:27:28;;;;;;;14.38;2.22;;;;;;;;;;5097082;28;20096;-82
2022/01/05 07:29:54;;;;;;;14.48;2.33;;;;;;;;;;5096631;28;20039;-82
2022/01/05 07:32:20;;;;;;;9.25;1.85;;;;;;;;;;5079953;28;20044;-81
2022/01/05 07:34:47;;;;;;;12.43;1.92;;;;;;;;;;5114948;28;20504;-81
2022/01/05 07:37:13;;;;;;;11.32;2.30;;;;;;;;;;5096959;28;20469;-82
2022/01/05 07:39:39;;;;;;;13.00;2.08;;;;;;;;;;5079711;28;20143;-82
2022/01/05 07:42:06;;;;;;;9.02;1.73;;;;;;;;;;5114557;28;20039;-82
2022/01/05 07:44:32;;;;;;;13.23;3.10;;;;;;;;;;5114313;28;20078;-82
2022/01/05 07:46:59;;;;;;;10.45;2.35;;;;;;;;;;5114797;28;20126;-82
2022/01/05 07:49:25;;;;;;;9.88;1.65;;;;;;;;;;5096035;28;20042;-82
2022/01/05 07:51:51;;;;;;;10.75;2.00;;;;;;;;;;5114596;28;20496;-81
2022/01/05 07:54:17;;;;;;;10.07;1.90;;;;;;;;;;5113944;28;20047;-82
2022/01/05 07:56:43;;;;;;;15.07;4.30;;;;;;;;;;5095302;28;20047;-82
2022/01/05 07:59:09;;;;;;;14.55;4.28;;;;;;;;;;5113766;28;20048;-82
2022/01/05 08:01:35;;;;;;;9.73;2.42;;;;;;;;;;5113475;28;20488;-82
2022/01/05 08:04:02;;;;;;;11.07;2.00;;;;;;;;;;5113660;28;20063;-82
2022/01/05 08:06:28;;;;;;;10.35;2.45;;;;;;;;;;5095804;28;20059;-78
2022/01/05 08:08:55;;;;;;;12.50;3.40;;;;;;;;;;5113662;28;20053;-81
2022/01/05 08:11:21;;;;;;;13.90;4.07;;;;;;;;;;5113789;28;20070;-81
2022/01/05 08:13:47;;;;;;;12.95;3.80;;;;;;;;;;5114094;28;20384;-82
2022/01/05 08:16:13;;;;;;;10.77;2.38;;;;;;;;;;5114039;28;20043;-82
2022/01/05 08:18:39;;;;;;;13.70;2.30;;;;;;;;;;5113826;28;20051;-81
2022/01/05 08:21:06;;;;;;;11.93;2.88;;;;;;;;;;5078881;28;20039;-82
2022/01/05 08:23:32;;;;;;;12.88;3.00;;;;;;;;;;5113699;28;20046;-83
2022/01/05 08:25:58;;;;;;;15.00;3.40;;;;;;;;;;5095965;28;20051;-81
2022/01/05 08:28:24;;;;;;;11.20;2.80;;;;;;;;;;5095465;28;20083;-82
2022/01/05 08:30:50;;;;;;;12.00;4.13;;;;;;;;;;5113800;28;20035;-82
2022/01/05 08:33:17;;;;;;;13.88;3.38;;;;;;;;;;5113546;28;20051;-82
2022/01/05 08:35:44;;;;;;;12.93;2.55;;;;;;;;;;5095425;28;20047;-83
2022/01/05 08:38:11;;;;;;;11.63;2.33;;;;;;;;;;5078386;28;20055;-81
2022/01/05 08:40:38;;;;;;;14.32;2.90;;;;;;;;;;5113303;28;20134;-82
2022/01/05 08:43:05;;;;;;;15.48;2.53;;;;;;;;;;5113319;28;20047;-82
2022/01/05 08:45:32;;;;;;;12.45;2.53;;;;;;;;;;5113261;28;20065;-82
2022/01/05 08:47:59;;;;;;;14.63;2.33;;;;;;;;;;5095453;28;20130;-82
2022/01/05 08:50:26;;;;;;;14.98;2.72;;;;;;;;;;5078404;28;20047;-81
2022/01/05 08:52:53;;;;;;;13.15;2.20;;;;;;;;;;5113277;28;20079;-80
2022/01/05 08:55:20;;;;;;;12.13;2.13;;;;;;;;;;5113152;28;20046;-82
2022/01/05 08:57:46;;;;;;;14.80;1.90;;;;;;;;;;5113153;28;20040;-81
2022/01/05 09:00:13;;;;;;;10.70;1.90;;;;;;;;;;5094361;28;20122;-81
2022/01/05 09:02:39;;;;;;;15.18;2.00;;;;;;;;;;5094477;28;20050;-82
2022/01/05 09:05:06;;;;;;;19.05;1.92;;;;;;;;;;5094697;28;20108;-82
2022/01/05 09:07:32;;;;;;;15.30;2.22;;;;;;;;;;5112295;28;20051;-82
2022/01/05 09:09:58;;;;;;;14.00;2.40;;;;;;;;;;5094853;28;20040;-83
2022/01/05 09:12:24;;;;;;;12.27;1.67;;;;;;;;;;5095237;28;20135;-82
2022/01/05 09:14:51;;;;;;;10.40;1.83;;;;;;;;;;5094234;28;20035;-83
2022/01/05 09:17:17;;;;;;;12.77;1.40;;;;;;;;;;5094472;28;20047;-82
2022/01/05 09:19:43;;;;;;;14.02;1.92;;;;;;;;;;5113091;28;20054;-82
2022/01/05 09:22:10;;;;;;;12.20;1.52;;;;;;;;;;5094539;28;20126;-82
2022/01/05 09:24:37;;;;;;;15.18;2.00;;;;;;;;;;5094796;28;20039;-82
2022/01/05 09:27:05;;;;;;;14.13;1.70;;;;;;;;;;5112753;28;20040;-82
2022/01/05 09:29:32;;;;;;;16.30;1.70;;;;;;;;;;5078181;28;20053;-83
2022/01/05 09:32:03;;;;;;;16.02;2.08;;;;;;;;;;5113014;28;20093;-83
2022/01/05 09:34:30;;;;;;;13.07;2.17;;;;;;;;;;5077832;28;20055;-81
2022/01/05 09:37:00;;;;;;;19.00;2.00;;;;;;;;;;5078162;28;20051;-83
2022/01/05 09:42:11;;;;;;;12.90;1.77;;;;;;;;;;5097619;28;20066;-82
2022/01/05 09:44:41;;;;;;;16.83;2.03;;;;;;;;;;5112769;28;20122;-82
2022/01/05 09:47:26;;;;;;;18.20;1.70;;;;;;;;;;5112738;28;20058;-82
2022/01/05 09:49:54;;;;;;;19.20;2.03;;;;;;;;;;5094996;28;20040;-82
2022/01/05 09:52:23;;;;;;;13.32;1.83;;;;;;;;;;5112734;28;20050;-83
2022/01/05 09:54:50;;;;;;;14.75;2.10;;;;;;;;;;5094859;28;20501;-82
2022/01/05 09:57:18;;;;;;;17.65;1.90;;;;;;;;;;5094450;28;20134;-82
2022/01/05 09:59:46;;;;;;;13.93;1.60;;;;;;;;;;5112623;28;20047;-82
2022/01/05 10:02:13;;;;;;;15.20;2.15;;;;;;;;;;5094523;28;20108;-82
2022/01/05 10:04:40;;;;;;;22.67;2.30;;;;;;;;;;5112795;28;20079;-81
2022/01/05 10:07:08;;;;;;;17.45;2.20;;;;;;;;;;5112355;28;20047;-82
2022/01/05 10:09:36;;;;;;;16.50;2.10;;;;;;;;;;5112461;28;20036;-83
2022/01/05 10:12:03;;;;;;;15.32;2.28;;;;;;;;;;5112495;28;20126;-83
2022/01/05 10:14:29;;;;;;;16.95;2.10;;;;;;;;;;5094577;28;20043;-81
2022/01/05 10:17:03;;;;;;;28.52;2.50;;;;;;;;;;5112679;28;20131;-83
2022/01/05 10:19:29;;;;;;;21.00;2.50;;;;;;;;;;5114117;28;20043;-81
2022/01/05 10:21:56;;;;;;;18.17;2.35;;;;;;;;;;5116243;28;20120;-82
2022/01/05 10:24:41;;;;;;;24.67;2.60;;;;;;;;;;5098036;28;20043;-82
2022/01/05 10:27:08;;;;;;;23.30;2.83;;;;;;;;;;5098006;28;20052;-82
2022/01/05 10:29:34;;;;;;;20.35;2.90;;;;;;;;;;5097680;28;20568;-82
2022/01/05 10:32:01;;;;;;;24.35;2.83;;;;;;;;;;5097745;28;20051;-83
2022/01/05 10:34:29;;;;;;;25.00;3.70;;;;;;;;;;5098112;28;20066;-82
2022/01/05 10:37:08;;;;;;;23.85;3.35;;;;;;;;;;5115967;28;20431;-82
2022/01/05 10:39:38;;;;;;;22.92;3.17;;;;;;;;;;5115616;28;20044;-83
2022/01/05 10:42:27;;;;;;;27.90;3.85;;;;;;;;;;5115604;28;20130;-82
2022/01/05 10:44:53;;;;;;;27.40;4.05;;;;;;;;;;5115247;28;20046;-82
2022/01/05 10:47:19;;;;;;;27.48;4.13;;;;;;;;;;5115618;28;20130;-82
2022/01/05 10:49:45;;;;;;;24.00;3.85;;;;;;;;;;5115492;28;20039;-82
2022/01/05 10:52:28;;;;;;;29.10;3.70;;;;;;;;;;5097272;28;20575;-81
2022/01/05 10:54:56;;;;;;;30.13;3.83;;;;;;;;;;5115436;28;20622;-82
2022/01/05 10:57:22;;;;;;;29.98;3.53;;;;;;;;;;5115531;28;20043;-82
2022/01/05 10:59:50;;;;;;;31.38;4.20;;;;;;;;;;5115326;28;20473;-81
2022/01/05 11:02:23;;;;;;;24.80;4.15;;;;;;;;;;5080271;28;20049;-82
2022/01/05 11:04:58;;;;;;;29.73;4.18;;;;;;;;;;5097012;28;20046;-82
2022/01/05 11:07:26;;;;;;;23.33;2.92;;;;;;;;;;5115323;28;20509;-81
2022/01/05 11:09:57;;;;;;;20.40;3.47;;;;;;;;;;5097289;28;20051;-82
2022/01/05 11:12:40;;;;;;;20.77;2.67;;;;;;;;;;5096522;28;20046;-82
2022/01/05 11:15:26;;;;;;;19.00;3.38;;;;;;;;;;5096957;28;20058;-82
2022/01/05 11:18:11;;;;;;;21.40;3.20;;;;;;;;;;5146918;27;20488;-81
2022/01/05 11:20:42;;;;;;;27.08;2.97;;;;;;;;;;5155320;27;20047;-81
2022/01/05 11:23:08;;;;;;;20.58;3.40;;;;;;;;;;5137475;27;20042;-82
2022/01/05 11:25:36;;;;;;;25.20;3.47;;;;;;;;;;5137398;27;20137;-82
2022/01/05 11:28:03;;;;;;;24.38;3.55;;;;;;;;;;5155979;27;20047;-82
2022/01/05 11:30:29;;;;;;;30.08;3.83;;;;;;;;;;5155574;27;20047;-82
2022/01/05 11:32:55;;;;;;;29.40;4.95;;;;;;;;;;5156066;27;20433;-83
2022/01/05 11:35:22;;;;;;;20.58;3.88;;;;;;;;;;5137494;27;20038;-81
2022/01/05 11:37:48;;;;;;;19.55;3.10;;;;;;;;;;5155553;27;20129;-82
2022/01/05 11:40:14;;;;;;;20.85;3.05;;;;;;;;;;5155802;27;20445;-82
2022/01/05 11:42:41;;;;;;;23.45;3.30;;;;;;;;;;5155714;27;20467;-82
2022/01/05 11:45:08;;;;;;;19.92;3.45;;;;;;;;;;5155710;27;20423;-82
2022/01/05 11:47:39;;;;;;;24.00;3.47;;;;;;;;;;5136887;27;20088;-81
2022/01/05 11:50:15;;;;;;;28.33;3.58;;;;;;;;;;5155445;27;20117;-82
2022/01/05 11:53:03;;;;;;;22.25;3.22;;;;;;;;;;5119994;27;20054;-83
2022/01/05 11:55:30;;;;;;;20.98;3.22;;;;;;;;;;5155485;27;20121;-82
2022/01/05 11:58:15;;;;;;;24.50;3.20;;;;;;;;;;5120372;27;20043;-79
2022/01/05 12:00:42;;;;;;;16.77;2.92;;;;;;;;;;5134680;27;20102;-82
2022/01/05 12:03:08;;;;;;;19.15;2.50;;;;;;;;;;5129545;27;20039;-82
2022/01/05 12:05:53;;;;;;;25.92;3.20;;;;;;;;;;5134678;27;20130;-83
2022/01/05 12:08:38;;;;;;;18.05;2.92;;;;;;;;;;5117425;27;21441;-81
2022/01/05 12:11:04;;;;;;;22.88;3.45;;;;;;;;;;5154197;27;20039;-80
2022/01/05 12:13:39;;;;;;;17.98;2.55;;;;;;;;;;5150565;27;20114;-81
2022/01/05 12:16:05;;;;;;;25.20;2.88;;;;;;;;;;5155583;27;20039;-82
2022/01/05 12:18:35;;;;;;;22.30;3.03;;;;;;;;;;5135039;27;20462;-82
2022/01/05 12:21:02;;;;;;;20.10;2.80;;;;;;;;;;5154796;27;20047;-84
2022/01/05 12:23:30;;;;;;;22.20;3.30;;;;;;;;;;5102661;27;20330;-83
2022/01/05 12:26:02;;;;;;;22.65;2.80;;;;;;;;;;5154827;27;20042;-83
2022/01/05 12:28:29;;;;;;;21.98;2.92;;;;;;;;;;5155025;27;20038;-83
2022/01/05 12:30:55;;;;;;;19.17;2.72;;;;;;;;;;5154907;27;20038;-83
2022/01/05 12:33:22;;;;;;;21.02;3.40;;;;;;;;;;5155011;27;20042;-83
2022/01/05 12:35:50;;;;;;;24.38;2.80;;;;;;;;;;5136278;27;20046;-82
2022/01/05 12:38:32;;;;;;;20.85;3.10;;;;;;;;;;5136064;27;20133;-82
2022/01/05 12:40:59;;;;;;;17.38;2.45;;;;;;;;;;5136142;27;20061;-82
2022/01/05 12:43:25;;;;;;;19.92;3.90;;;;;;;;;;5153762;27;20470;-83
2022/01/05 12:45:56;;;;;;;20.48;2.50;;;;;;;;;;5154580;27;20043;-84
2022/01/05 12:48:35;;;;;;;14.95;2.40;;;;;;;;;;5154586;27;20042;-83
2022/01/05 12:51:23;;;;;;;22.80;3.20;;;;;;;;;;5154537;27;20042;-82
2022/01/05 12:54:00;;;;;;;20.52;2.75;;;;;;;;;;5154555;27;20050;-82
2022/01/05 12:56:32;;;;;;;19.48;2.58;;;;;;;;;;5136007;27;20051;-83
2022/01/05 12:58:59;;;;;;;19.67;2.60;;;;;;;;;;5136005;27;20386;-83
2022/01/05 13:01:27;;;;;;;15.35;2.40;;;;;;;;;;5154373;27;20047;-82
2022/01/05 13:03:54;;;;;;;17.90;2.72;;;;;;;;;;5154370;27;20042;-83
2022/01/05 13:06:23;;;;;;;22.75;2.80;;;;;;;;;;5154143;27;20050;-82
2022/01/05 13:08:50;;;;;;;23.77;3.03;;;;;;;;;;5154327;27;20043;-81
2022/01/05 13:11:42;;;;;;;22.88;3.05;;;;;;;;;;5154202;27;20479;-82
2022/01/05 13:14:27;;;;;;;15.63;2.75;;;;;;;;;;5126552;27;20053;-81
2022/01/05 13:17:13;;;;;;;20.90;2.85;;;;;;;;;;5154277;27;20500;-82
2022/01/05 13:19:42;;;;;;;23.80;3.88;;;;;;;;;;5135509;27;20124;-83
2022/01/05 13:22:09;;;;;;;18.52;2.78;;;;;;;;;;5153959;27;20050;-82
2022/01/05 13:24:43;;;;;;;22.15;3.08;;;;;;;;;;5135918;27;20045;-82
2022/01/05 13:27:09;;;;;;;18.27;2.95;;;;;;;;;;5154277;27;20045;-82
2022/01/05 13:29:36;;;;;;;22.00;2.75;;;;;;;;;;5154159;27;20099;-81
2022/01/05 13:32:04;;;;;;;16.60;2.55;;;;;;;;;;5154530;27;20091;-81
2022/01/05 13:34:31;;;;;;;15.68;2.35;;;;;;;;;;5154031;27;20046;-82
2022/01/05 13:36:58;;;;;;;12.60;2.08;;;;;;;;;;5154191;27;20043;-81
2022/01/05 13:39:42;;;;;;;20.00;2.80;;;;;;;;;;5135974;27;20043;-83
2022/01/05 13:42:10;;;;;;;18.52;2.85;;;;;;;;;;5153995;27;20391;-82
2022/01/05 13:44:37;;;;;;;22.77;3.28;;;;;;;;;;5153943;27;20039;-82
2022/01/05 13:47:04;;;;;;;15.68;3.03;;;;;;;;;;5135425;27;20070;-81
2022/01/05 13:49:30;;;;;;;17.77;3.33;;;;;;;;;;5135719;27;20081;-82
2022/01/05 13:52:11;;;;;;;27.10;3.25;;;;;;;;;;5154136;27;20038;-83
2022/01/05 13:54:38;;;;;;;26.02;3.90;;;;;;;;;;5120242;27;20046;-81
2022/01/05 13:57:05;;;;;;;24.55;3.75;;;;;;;;;;5158244;27;20043;-82
2022/01/05 13:59:41;;;;;;;20.65;3.60;;;;;;;;;;5139450;27;20046;-82
2022/01/05 14:02:08;;;;;;;27.92;4.10;;;;;;;;;;5158043;27;20048;-82
2022/01/05 14:04:55;;;;;;;22.30;3.75;;;;;;;;;;5157752;27;20387;-82
2022/01/05 14:07:22;;;;;;;27.77;3.80;;;;;;;;;;5157519;27;20046;-82
2022/01/05 14:10:07;;;;;;;21.88;3.05;;;;;;;;;;5157509;27;20082;-83
2022/01/05 14:12:35;;;;;;;20.08;2.55;;;;;;;;;;5157763;27;20379;-82
2022/01/05 14:15:05;;;;;;;18.95;2.63;;;;;;;;;;5157645;27;20047;-81
2022/01/05 14:17:34;;;;;;;20.17;2.90;;;;;;;;;;5139275;27;20039;-82
2022/01/05 14:20:32;;;;;;;16.73;2.55;;;;;;;;;;5157426;27;20042;-82
2022/01/05 14:23:00;;;;;;;17.75;3.10;;;;;;;;;;5094530;27;20137;-79
2022/01/05 14:25:40;;;;;;;17.13;2.88;;;;;;;;;;5157894;27;20098;-76
2022/01/05 14:28:18;;;;;;;18.50;2.63;;;;;;;;;;5157697;27;20038;-82
2022/01/05 14:30:48;;;;;;;19.30;2.95;;;;;;;;;;5138709;27;20043;-84
2022/01/05 14:33:24;;;;;;;16.40;2.47;;;;;;;;;;5121406;27;20046;-82
2022/01/05 14:35:51;;;;;;;18.23;2.63;;;;;;;;;;5157081;27;20046;-81
2022/01/05 14:38:17;;;;;;;15.50;2.10;;;;;;;;;;5156861;27;20077;-83